createdAt,value
2024-01-22T00:01:04.685Z,1.77
2024-01-22T00:03:33.005Z,1.70
2024-01-22T00:06:01.531Z,1.63
2024-01-22T00:08:29.754Z,1.57
2024-01-22T00:10:57.990Z,1.57
2024-01-22T00:13:26.186Z,1.56
2024-01-22T00:15:54.526Z,1.54
2024-01-22T00:18:24.216Z,1.49
2024-01-22T00:20:52.579Z,1.46
2024-01-22T00:23:20.765Z,1.43
2024-01-22T00:25:49.146Z,1.40
2024-01-22T00:28:17.278Z,1.37
2024-01-22T00:30:45.479Z,1.36
2024-01-22T00:33:13.755Z,1.36
2024-01-22T00:35:43.616Z,1.37
2024-01-22T00:38:12.930Z,1.41
2024-01-22T00:40:41.131Z,1.53
2024-01-22T00:43:09.353Z,1.62
2024-01-22T00:45:40.214Z,1.68
2024-01-22T00:48:09.645Z,1.72
2024-01-22T00:50:37.958Z,1.72
2024-01-22T00:53:07.654Z,1.71
2024-01-22T00:55:35.806Z,1.72
2024-01-22T00:58:04.066Z,1.78
2024-01-22T01:00:32.259Z,1.83
2024-01-22T01:03:00.561Z,1.77
2024-01-22T01:05:28.842Z,1.67
2024-01-22T01:07:57.134Z,1.63
2024-01-22T01:10:26.850Z,1.58
2024-01-22T01:12:55.016Z,1.59
2024-01-22T01:15:24.496Z,1.59
2024-01-22T01:17:52.989Z,1.56
2024-01-22T01:20:21.211Z,1.54
2024-01-22T01:22:49.376Z,1.55
2024-01-22T01:25:17.601Z,1.58
2024-01-22T01:27:47.310Z,1.62
2024-01-22T01:30:16.277Z,1.63
2024-01-22T01:32:44.828Z,1.64
2024-01-22T01:35:13.489Z,1.62
2024-01-22T01:37:41.732Z,1.58
2024-01-22T01:40:11.359Z,1.58
2024-01-22T01:42:43.613Z,1.55
2024-01-22T01:45:16.204Z,1.50
2024-01-22T01:47:49.126Z,1.52
2024-01-22T01:50:18.621Z,1.56
2024-01-22T01:52:47.836Z,1.59
2024-01-22T01:55:16.570Z,1.54
2024-01-22T01:57:48.340Z,1.40
2024-01-22T02:00:21.537Z,1.35
2024-01-22T02:02:50.154Z,1.32
2024-01-22T02:05:19.077Z,1.31
2024-01-22T02:07:48.472Z,1.31
2024-01-22T02:10:16.836Z,1.31
2024-01-22T02:12:45.088Z,1.34
2024-01-22T02:15:14.420Z,1.34
2024-01-22T02:17:44.864Z,1.33
2024-01-22T02:20:14.549Z,1.33
2024-01-22T02:22:42.726Z,1.35
2024-01-22T02:25:14.056Z,1.35
2024-01-22T02:27:42.182Z,1.32
2024-01-22T02:30:11.515Z,1.30
2024-01-22T02:32:39.919Z,1.28
2024-01-22T02:35:09.031Z,1.16
2024-01-22T02:37:37.369Z,1.07
2024-01-22T02:40:06.460Z,1.07
2024-01-22T02:42:36.229Z,1.08
2024-01-22T02:45:06.066Z,1.05
2024-01-22T02:47:34.387Z,1.06
2024-01-22T02:50:02.986Z,1.07
2024-01-22T02:52:31.164Z,1.06
2024-01-22T02:54:59.325Z,1.04
2024-01-22T02:57:27.546Z,1.04
2024-01-22T02:59:57.203Z,1.03
2024-01-22T03:02:25.441Z,1.02
2024-01-22T03:04:53.734Z,1.01
2024-01-22T03:07:21.925Z,1.00
2024-01-22T03:09:50.099Z,1.00
2024-01-22T03:12:18.371Z,1.01
2024-01-22T03:14:46.721Z,0.96
2024-01-22T03:17:16.777Z,0.86
2024-01-22T03:19:45.096Z,0.80
2024-01-22T03:22:13.482Z,0.72
2024-01-22T03:24:45.761Z,0.57
2024-01-22T03:27:14.188Z,0.51
2024-01-22T03:29:42.622Z,0.45
2024-01-22T03:32:10.959Z,0.40
2024-01-22T03:34:40.706Z,0.38
2024-01-22T03:37:08.849Z,0.37
2024-01-22T03:39:37.016Z,0.41
2024-01-22T03:42:05.584Z,0.46
2024-01-22T03:44:34.025Z,0.53
2024-01-22T03:47:02.372Z,0.61
2024-01-22T03:49:30.742Z,0.62
2024-01-22T03:52:00.441Z,0.59
2024-01-22T03:54:28.637Z,0.58
2024-01-22T03:56:56.834Z,0.61
2024-01-22T03:59:25.413Z,0.64
2024-01-22T04:01:57.524Z,0.62
2024-01-22T04:04:25.688Z,0.55
2024-01-22T04:06:54.206Z,0.52
2024-01-22T04:09:24.127Z,0.49
2024-01-22T04:11:52.509Z,0.46
2024-01-22T04:14:20.771Z,0.39
2024-01-22T04:16:49.007Z,0.39
2024-01-22T04:19:17.216Z,0.39
2024-01-22T04:21:49.123Z,0.42
2024-01-22T04:24:17.338Z,0.45
2024-01-22T04:26:47.037Z,0.46
2024-01-22T04:29:15.260Z,0.49
2024-01-22T04:31:43.497Z,0.51
2024-01-22T04:34:11.720Z,0.49
2024-01-22T04:36:40.048Z,0.50
2024-01-22T04:39:08.513Z,0.50
2024-01-22T04:41:36.823Z,0.46
2024-01-22T04:44:06.800Z,0.48
2024-01-22T04:46:34.951Z,0.52
2024-01-22T04:49:03.259Z,0.51
2024-01-22T04:51:31.568Z,0.51
2024-01-22T04:53:59.830Z,0.50
2024-01-22T04:56:28.036Z,0.51
2024-01-22T04:58:56.162Z,0.57
2024-01-22T05:01:25.778Z,0.62
2024-01-22T05:03:54.197Z,0.68
2024-01-22T05:06:22.552Z,0.77
2024-01-22T05:08:50.891Z,0.87
2024-01-22T05:11:19.105Z,0.91
2024-01-22T05:13:51.350Z,0.94
2024-01-22T05:16:20.127Z,0.96
2024-01-22T05:18:51.159Z,1.00
2024-01-22T05:21:19.689Z,0.99
2024-01-22T05:23:48.086Z,0.97
2024-01-22T05:26:16.364Z,1.05
2024-01-22T05:28:44.643Z,1.11
2024-01-22T05:31:12.901Z,1.15
2024-01-22T05:33:41.340Z,1.21
2024-01-22T05:36:11.559Z,1.31
2024-01-22T05:38:42.966Z,1.37
2024-01-22T05:41:11.168Z,1.43
2024-01-22T05:43:39.415Z,1.42
2024-01-22T05:46:07.601Z,1.41
2024-01-22T05:48:36.710Z,1.41
2024-01-22T05:51:05.392Z,1.38
2024-01-22T05:53:36.079Z,1.30
2024-01-22T05:56:04.261Z,1.23
2024-01-22T05:58:32.495Z,1.24
2024-01-22T06:01:00.801Z,1.36
2024-01-22T06:03:29.164Z,1.39
2024-01-22T06:05:57.481Z,1.42
2024-01-22T06:08:25.861Z,1.45
2024-01-22T06:10:55.583Z,1.49
2024-01-22T06:13:23.764Z,1.52
2024-01-22T06:15:51.898Z,1.50
2024-01-22T06:18:21.407Z,1.56
2024-01-22T06:20:49.795Z,1.55
2024-01-22T06:23:18.098Z,1.60
2024-01-22T06:25:46.360Z,1.66
2024-01-22T06:28:16.139Z,1.71
2024-01-22T06:30:44.826Z,1.82
2024-01-22T06:33:13.309Z,1.95
2024-01-22T06:35:41.913Z,2.09
2024-01-22T06:38:10.831Z,2.13
2024-01-22T06:40:39.124Z,2.19
2024-01-22T06:43:08.679Z,2.21
2024-01-22T06:45:38.717Z,2.31
2024-01-22T06:48:09.802Z,2.39
2024-01-22T06:50:38.638Z,2.33
2024-01-22T06:53:06.955Z,2.28
2024-01-22T06:55:35.263Z,2.20
2024-01-22T06:58:03.844Z,2.19
2024-01-22T07:00:34.378Z,2.26
2024-01-22T07:03:04.518Z,2.34
2024-01-22T07:05:34.608Z,2.42
2024-01-22T07:08:02.929Z,2.51
2024-01-22T07:10:31.691Z,2.57
2024-01-22T07:12:59.977Z,2.69
2024-01-22T07:15:28.234Z,2.69
2024-01-22T07:17:56.604Z,2.75
2024-01-22T07:20:26.377Z,2.78
2024-01-22T07:22:55.200Z,2.74
2024-01-22T07:25:23.563Z,2.67
2024-01-22T07:27:51.809Z,2.64
2024-01-22T07:30:20.246Z,2.66
2024-01-22T07:32:49.410Z,2.64
2024-01-22T07:35:18.361Z,2.60
2024-01-22T07:37:48.681Z,2.56
2024-01-22T07:40:17.285Z,2.60
2024-01-22T07:42:46.325Z,2.60
2024-01-22T07:45:15.738Z,2.61
2024-01-22T07:47:45.030Z,2.75
2024-01-22T07:50:15.642Z,2.84
2024-01-22T07:52:47.136Z,2.90
2024-01-22T07:55:20.161Z,2.95
2024-01-22T07:57:48.436Z,3.07
2024-01-22T08:00:17.632Z,3.16
2024-01-22T08:02:46.281Z,3.11
2024-01-22T08:05:15.673Z,3.05
2024-01-22T08:07:45.357Z,3.00
2024-01-22T08:10:14.984Z,3.13
2024-01-22T08:12:44.842Z,3.27
2024-01-22T08:15:17.140Z,3.39
2024-01-22T08:17:48.073Z,3.45
2024-01-22T08:20:18.308Z,3.47
2024-01-22T08:22:48.137Z,3.57
2024-01-22T08:25:20.846Z,3.64
2024-01-22T08:27:50.812Z,3.66
2024-01-22T08:30:19.564Z,3.72
2024-01-22T08:32:48.115Z,3.65
2024-01-22T08:35:18.336Z,3.53
2024-01-22T08:37:49.333Z,3.54
2024-01-22T08:40:18.992Z,3.50
2024-01-22T08:42:47.555Z,3.33
2024-01-22T08:45:17.485Z,3.35
2024-01-22T08:47:47.280Z,3.51
2024-01-22T08:50:19.183Z,3.76
2024-01-22T08:52:48.459Z,4.07
2024-01-22T08:55:17.315Z,4.42
2024-01-22T08:57:45.596Z,4.72
2024-01-22T09:00:15.899Z,4.90
2024-01-22T09:02:45.996Z,4.90
2024-01-22T09:05:15.857Z,4.95
2024-01-22T09:07:44.246Z,5.05
2024-01-22T09:10:13.045Z,5.17
2024-01-22T09:12:41.720Z,5.32
2024-01-22T09:15:11.544Z,5.45
2024-01-22T09:17:40.090Z,5.59
2024-01-22T09:20:11.536Z,5.63
2024-01-22T09:22:39.868Z,5.55
2024-01-22T09:25:08.694Z,5.42
2024-01-22T09:27:37.042Z,5.40
2024-01-22T09:30:07.867Z,5.47
2024-01-22T09:32:37.324Z,5.59
2024-01-22T09:35:06.904Z,5.68
2024-01-22T09:37:36.592Z,5.84
2024-01-22T09:40:10.500Z,5.94
2024-01-22T09:42:42.519Z,6.05
2024-01-22T09:45:12.330Z,6.23
2024-01-22T09:47:40.779Z,6.16
2024-01-22T09:50:10.267Z,6.13
2024-01-22T09:52:45.692Z,6.13
2024-01-22T09:55:16.450Z,6.25
2024-01-22T09:57:46.451Z,6.53
2024-01-22T10:00:17.479Z,6.63
2024-01-22T10:02:45.948Z,6.70
2024-01-22T10:05:15.262Z,6.70
2024-01-22T10:07:45.165Z,6.62
2024-01-22T10:10:15.342Z,6.60
2024-01-22T10:13:05.645Z,6.61
2024-01-22T10:15:35.085Z,6.53
2024-01-22T10:18:14.399Z,6.38
2024-01-22T10:20:44.702Z,6.31
2024-01-22T10:23:17.811Z,6.18
2024-01-22T10:25:46.552Z,5.96
2024-01-22T10:28:18.818Z,5.94
2024-01-22T10:30:48.672Z,5.96
2024-01-22T10:33:18.667Z,6.07
2024-01-22T10:35:49.546Z,6.14
2024-01-22T10:38:21.274Z,6.33
2024-01-22T10:40:50.483Z,6.54
2024-01-22T10:43:25.773Z,6.81
2024-01-22T10:45:55.707Z,6.82
2024-01-22T10:48:37.023Z,6.86
2024-01-22T10:51:09.892Z,6.93
2024-01-22T10:53:40.819Z,6.90
2024-01-22T10:56:17.438Z,6.75
2024-01-22T10:58:48.961Z,6.50
2024-01-22T11:01:21.512Z,6.50
2024-01-22T11:03:53.191Z,6.66
2024-01-22T11:06:24.531Z,6.82
2024-01-22T11:08:56.943Z,7.04
2024-01-22T11:11:27.446Z,7.35
2024-01-22T11:13:58.346Z,7.62
2024-01-22T11:16:27.647Z,7.82
2024-01-22T11:18:58.039Z,7.87
2024-01-22T11:21:27.172Z,7.89
2024-01-22T11:24:15.545Z,7.91
2024-01-22T11:26:46.458Z,8.04
2024-01-22T11:29:17.856Z,8.27
2024-01-22T11:31:48.149Z,8.63
2024-01-22T11:34:47.340Z,9.13
2024-01-22T11:37:36.076Z,9.49
2024-01-22T11:40:09.154Z,9.69
2024-01-22T11:42:38.194Z,9.96
2024-01-22T11:45:12.965Z,10.21
2024-01-22T11:47:42.507Z,10.35
2024-01-22T11:50:12.354Z,10.44
2024-01-22T11:52:41.208Z,10.63
2024-01-22T11:55:11.333Z,11.14
2024-01-22T11:57:41.276Z,12.02
2024-01-22T12:00:16.108Z,12.03
2024-01-22T12:02:47.617Z,11.80
2024-01-22T12:05:19.688Z,11.54
2024-01-22T12:07:50.428Z,11.21
2024-01-22T12:10:25.037Z,11.03
2024-01-22T12:12:58.195Z,10.96
2024-01-22T12:15:27.974Z,10.79
2024-01-22T12:17:57.407Z,10.46
2024-01-22T12:20:26.994Z,10.23
2024-01-22T12:22:59.765Z,10.11
2024-01-22T12:25:37.784Z,10.03
2024-01-22T12:28:09.959Z,9.92
2024-01-22T12:30:39.609Z,9.83
2024-01-22T12:33:21.058Z,9.72
2024-01-22T12:35:49.455Z,9.78
2024-01-22T12:38:18.319Z,9.81
2024-01-22T12:40:48.174Z,9.91
2024-01-22T12:43:17.856Z,10.11
2024-01-22T12:45:46.300Z,10.28
2024-01-22T12:48:15.088Z,10.46
2024-01-22T12:50:44.661Z,10.60
2024-01-22T12:53:13.019Z,10.65
2024-01-22T12:55:41.412Z,10.69
2024-01-22T12:58:13.357Z,10.73
2024-01-22T13:00:41.625Z,10.81
2024-01-22T13:03:10.769Z,10.85
2024-01-22T13:05:40.254Z,10.84
2024-01-22T13:08:11.368Z,10.85
2024-01-22T13:10:39.623Z,10.86
2024-01-22T13:13:08.509Z,10.80
2024-01-22T13:15:50.735Z,10.72
2024-01-22T13:18:26.573Z,10.78
2024-01-22T13:20:54.994Z,10.84
2024-01-22T13:23:23.373Z,10.91
2024-01-22T13:25:53.851Z,10.97
2024-01-22T13:28:22.134Z,10.95
2024-01-22T13:30:51.870Z,10.87
2024-01-22T13:33:20.231Z,10.75
2024-01-22T13:35:49.587Z,10.68
2024-01-22T13:38:18.369Z,10.55
2024-01-22T13:40:46.729Z,10.45
2024-01-22T13:43:15.064Z,10.42
2024-01-22T13:45:43.672Z,10.35
2024-01-22T13:48:13.836Z,10.37
2024-01-22T13:50:44.627Z,10.39
2024-01-22T13:53:13.451Z,10.38
2024-01-22T13:55:41.671Z,10.34
2024-01-22T13:58:10.022Z,10.34
2024-01-22T14:00:39.202Z,10.29
2024-01-22T14:03:08.047Z,10.29
2024-01-22T14:05:37.955Z,10.16
2024-01-22T14:08:07.129Z,9.86
2024-01-22T14:10:35.644Z,9.62
2024-01-22T14:13:04.057Z,9.39
2024-01-22T14:15:33.231Z,9.18
2024-01-22T14:18:02.119Z,8.94
2024-01-22T14:20:30.521Z,8.81
2024-01-22T14:23:07.340Z,8.72
2024-01-22T14:25:36.993Z,8.69
2024-01-22T14:28:05.593Z,8.68
2024-01-22T14:30:34.015Z,8.66
2024-01-22T14:33:02.828Z,8.67
2024-01-22T14:35:31.649Z,8.68
2024-01-22T14:38:01.585Z,8.65
2024-01-22T14:40:30.025Z,8.61
2024-01-22T14:42:58.566Z,8.61
2024-01-22T14:45:26.941Z,8.61
2024-01-22T14:47:57.134Z,8.64
2024-01-22T14:50:27.010Z,8.63
2024-01-22T14:52:55.320Z,8.62
2024-01-22T14:55:25.464Z,8.60
2024-01-22T14:57:53.686Z,8.58
2024-01-22T15:00:22.497Z,8.63
2024-01-22T15:02:52.296Z,8.72
2024-01-22T15:05:20.769Z,8.77
2024-01-22T15:07:49.745Z,8.82
2024-01-22T15:10:18.496Z,8.85
2024-01-22T15:12:48.922Z,8.73
2024-01-22T15:15:17.205Z,8.66
2024-01-22T15:17:45.662Z,8.60
2024-01-22T15:20:15.196Z,8.59
2024-01-22T15:22:43.665Z,8.62
2024-01-22T15:25:13.539Z,8.56
2024-01-22T15:27:41.823Z,8.37
2024-01-22T15:30:12.696Z,8.18
2024-01-22T15:32:41.149Z,8.04
2024-01-22T15:35:11.303Z,7.92
2024-01-22T15:37:41.717Z,7.78
2024-01-22T15:40:11.886Z,7.71
2024-01-22T15:42:40.410Z,7.64
2024-01-22T15:45:10.453Z,7.56
2024-01-22T15:47:41.172Z,7.51
2024-01-22T15:50:10.282Z,7.45
2024-01-22T15:52:38.578Z,7.40
2024-01-22T15:55:07.021Z,7.33
2024-01-22T15:57:35.266Z,7.27
2024-01-22T16:00:03.868Z,7.22
2024-01-22T16:02:32.226Z,7.22
2024-01-22T16:05:02.154Z,7.26
2024-01-22T16:07:30.719Z,7.19
2024-01-22T16:09:59.149Z,7.14
2024-01-22T16:12:27.744Z,7.11
2024-01-22T16:14:56.224Z,7.10
2024-01-22T16:17:25.116Z,7.10
2024-01-22T16:19:53.577Z,7.10
2024-01-22T16:22:23.358Z,7.20
2024-01-22T16:24:51.739Z,7.32
2024-01-22T16:27:20.622Z,7.41
2024-01-22T16:29:51.927Z,7.43
2024-01-22T16:32:20.852Z,7.47
2024-01-22T16:34:49.457Z,7.46
2024-01-22T16:37:19.551Z,7.44
2024-01-22T16:39:51.014Z,7.40
2024-01-22T16:42:19.225Z,7.38
2024-01-22T16:44:47.577Z,7.40
2024-01-22T16:47:16.126Z,7.38
2024-01-22T16:49:45.124Z,7.29
2024-01-22T16:52:13.566Z,7.18
2024-01-22T16:54:41.736Z,7.09
2024-01-22T16:57:11.444Z,7.05
2024-01-22T16:59:39.645Z,7.06
2024-01-22T17:02:08.210Z,7.05
2024-01-22T17:04:36.539Z,7.02
2024-01-22T17:07:06.327Z,7.01
2024-01-22T17:09:34.730Z,6.96
2024-01-22T17:12:04.312Z,6.86
2024-01-22T17:14:34.516Z,6.74
2024-01-22T17:17:05.543Z,6.56
2024-01-22T17:19:34.152Z,6.44
2024-01-22T17:22:02.446Z,6.41
2024-01-22T17:24:30.807Z,6.44
2024-01-22T17:26:59.190Z,6.50
2024-01-22T17:29:27.578Z,6.60
2024-01-22T17:31:58.010Z,6.73
2024-01-22T17:34:26.661Z,6.79
2024-01-22T17:36:55.008Z,6.81
2024-01-22T17:39:23.732Z,6.77
2024-01-22T17:41:52.508Z,6.78
2024-01-22T17:44:20.851Z,6.86
2024-01-22T17:46:49.169Z,6.91
2024-01-22T17:49:18.907Z,7.04
2024-01-22T17:51:47.368Z,7.07
2024-01-22T17:54:15.689Z,7.07
2024-01-22T17:56:44.044Z,7.13
2024-01-22T17:59:14.284Z,7.12
2024-01-22T18:01:42.526Z,7.11
2024-01-22T18:04:10.869Z,7.09
2024-01-22T18:06:40.820Z,7.09
2024-01-22T18:09:09.168Z,7.07
2024-01-22T18:11:37.504Z,6.93
2024-01-22T18:14:06.219Z,6.77
2024-01-22T18:16:34.691Z,6.71
2024-01-22T18:19:03.219Z,6.68
2024-01-22T18:21:31.509Z,6.61
2024-01-22T18:24:06.580Z,6.49
2024-01-22T18:26:35.264Z,6.36
2024-01-22T18:29:03.656Z,6.31
2024-01-22T18:31:31.884Z,6.36
2024-01-22T18:34:00.431Z,6.43
2024-01-22T18:36:28.781Z,6.43
2024-01-22T18:38:57.084Z,6.43
2024-01-22T18:41:28.909Z,6.43
2024-01-22T18:43:57.918Z,6.51
2024-01-22T18:46:26.444Z,6.56
2024-01-22T18:48:54.901Z,6.53
2024-01-22T18:51:23.425Z,6.50
2024-01-22T18:53:51.876Z,6.51
2024-01-22T18:56:20.048Z,6.56
2024-01-22T18:58:49.776Z,6.64
2024-01-22T19:01:18.878Z,6.71
2024-01-22T19:03:47.530Z,6.74
2024-01-22T19:06:15.935Z,6.66
2024-01-22T19:08:44.849Z,6.49
2024-01-22T19:11:13.089Z,6.47
2024-01-22T19:13:42.177Z,6.45
2024-01-22T19:16:13.798Z,6.53
2024-01-22T19:18:43.064Z,6.62
2024-01-22T19:21:16.933Z,6.73
2024-01-22T19:23:45.841Z,6.77
2024-01-22T19:26:14.571Z,6.77
2024-01-22T19:28:42.885Z,6.71
2024-01-22T19:31:12.625Z,6.75
2024-01-22T19:33:41.655Z,6.81
2024-01-22T19:36:10.326Z,6.83
2024-01-22T19:38:39.116Z,6.87
2024-01-22T19:41:07.749Z,6.87
2024-01-22T19:43:36.028Z,6.99
2024-01-22T19:46:04.403Z,7.10
2024-01-22T19:48:36.423Z,7.16
2024-01-22T19:51:05.048Z,7.11
2024-01-22T19:53:34.407Z,7.03
2024-01-22T19:56:02.709Z,7.02
2024-01-22T19:58:31.066Z,7.05
2024-01-22T20:00:59.409Z,7.02
2024-01-22T20:03:27.741Z,7.03
2024-01-22T20:05:57.610Z,7.04
2024-01-22T20:08:25.976Z,7.10
2024-01-22T20:10:54.302Z,7.12
2024-01-22T20:13:22.677Z,7.16
2024-01-22T20:15:51.004Z,7.11
2024-01-22T20:18:19.440Z,7.09
2024-01-22T20:20:47.788Z,7.02
2024-01-22T20:23:17.654Z,6.89
2024-01-22T20:25:45.934Z,6.85
2024-01-22T20:28:15.321Z,6.86
2024-01-22T20:30:43.585Z,6.82
2024-01-22T20:33:11.886Z,6.75
2024-01-22T20:35:41.841Z,6.70
2024-01-22T20:38:11.090Z,6.67
2024-01-22T20:40:42.898Z,6.74
2024-01-22T20:43:11.635Z,6.79
2024-01-22T20:45:39.985Z,6.82
2024-01-22T20:48:09.333Z,6.90
2024-01-22T20:50:37.641Z,6.99
2024-01-22T20:53:06.043Z,7.03
2024-01-22T20:55:34.473Z,7.10
2024-01-22T20:58:04.282Z,7.17
2024-01-22T21:00:32.621Z,7.24
2024-01-22T21:03:02.351Z,7.14
2024-01-22T21:05:30.865Z,7.05
2024-01-22T21:07:59.313Z,7.04
2024-01-22T21:10:27.738Z,7.05
2024-01-22T21:12:56.693Z,7.04
2024-01-22T21:15:26.833Z,7.06
2024-01-22T21:17:55.393Z,7.11
2024-01-22T21:20:24.693Z,7.10
2024-01-22T21:22:53.642Z,7.09
2024-01-22T21:25:22.163Z,7.04
2024-01-22T21:27:50.525Z,7.05
2024-01-22T21:30:19.826Z,6.94
2024-01-22T21:32:50.060Z,6.93
2024-01-22T21:35:18.517Z,6.99
2024-01-22T21:37:47.889Z,6.95
2024-01-22T21:40:16.376Z,7.03
2024-01-22T21:42:47.792Z,7.07
2024-01-22T21:45:17.585Z,7.10
2024-01-22T21:47:46.422Z,7.08
2024-01-22T21:50:17.141Z,7.11
2024-01-22T21:52:45.466Z,7.05
2024-01-22T21:55:13.853Z,7.09
2024-01-22T21:57:43.012Z,6.94
2024-01-22T22:00:13.060Z,6.94
2024-01-22T22:02:42.015Z,6.90
2024-01-22T22:05:11.045Z,6.90
2024-01-22T22:07:40.881Z,6.91
2024-01-22T22:10:10.098Z,6.85
2024-01-22T22:12:39.290Z,6.80
2024-01-22T22:15:09.782Z,6.75
2024-01-22T22:17:40.037Z,6.72
2024-01-22T22:20:10.728Z,6.80
2024-01-22T22:22:40.928Z,6.90
2024-01-22T22:25:10.252Z,6.97
2024-01-22T22:27:38.663Z,7.04
2024-01-22T22:30:08.656Z,7.13
2024-01-22T22:32:37.024Z,7.21
2024-01-22T22:35:05.766Z,7.32
2024-01-22T22:37:34.000Z,7.41
2024-01-22T22:40:03.657Z,7.50
2024-01-22T22:42:31.946Z,7.59
2024-01-22T22:45:00.310Z,7.56
2024-01-22T22:47:28.681Z,7.43
2024-01-22T22:49:56.958Z,7.30
2024-01-22T22:52:25.339Z,7.26
2024-01-22T22:54:53.732Z,7.33
2024-01-22T22:57:23.570Z,7.48
2024-01-22T22:59:51.833Z,7.60
2024-01-22T23:02:20.061Z,7.69
2024-01-22T23:04:48.379Z,7.78
2024-01-22T23:07:17.244Z,7.85
2024-01-22T23:09:45.448Z,7.92
2024-01-22T23:12:14.169Z,7.91
2024-01-22T23:14:43.966Z,7.94
2024-01-22T23:17:12.165Z,7.81
2024-01-22T23:19:40.483Z,7.46
2024-01-22T23:22:08.770Z,7.08
2024-01-22T23:24:37.176Z,6.78
2024-01-22T23:27:05.904Z,6.55
2024-01-22T23:29:34.129Z,6.39
2024-01-22T23:32:04.077Z,6.32
2024-01-22T23:34:32.359Z,6.30
2024-01-22T23:37:00.725Z,6.34
2024-01-22T23:39:29.198Z,6.45
2024-01-22T23:41:57.732Z,6.63
2024-01-22T23:44:25.984Z,6.83
2024-01-22T23:46:54.740Z,6.99
2024-01-22T23:49:24.652Z,7.01
2024-01-22T23:51:52.806Z,6.95
2024-01-22T23:54:21.339Z,6.83
2024-01-22T23:56:49.619Z,6.72
2024-01-22T23:59:17.944Z,6.64
